My Meet Scores
Grace Flanagan, Aspire Gymnastics Academy - MyMeetScores.com
Top100 | Top Teams | Upcoming Meets | Completed Meets | Latest | Add Scores | Help| Support | Bookmark and Share

Grace Flanagan, Aspire Gymnastics Academy
Personal Bests
LevelVault BarsBeamFloorAA
39.7759.600 9.3509.25037.550
49.4009.850 9.6009.30037.925
59.3509.250 9.2509.10036.650
Scores on America's Top 100as of 07.05.2020
Year Level Vault Bars Beam Floor AA
2019 49.850

Click here to view our exclusive Top 100 Collection
Meet Scores
Date Meet Team Session Level Division Vault Bars Beam Floor AA
2020-02-21 Great Western Invitational - Women's Aspire Gymnastics Academy 02 5 Cowgirl 9.075 11 9.250 4T 8.625 7 8.725 11 35.675 6
2020-02-14 Big Classic Aspire Gymnastics Academy 1A 5 Junior A 9.050 36T 9.200 24 8.800 43T 8.550 63T 35.600 39
2020-01-24 Uga Invitational Aspire Gymnastics Academy B1 5 Jr A 9.250 3T 9.250 1 9.050 7 9.100 4 36.650 2
2020-01-17 2020 Bravo Classic Aspire Gymnastics Academy 4A 5 Jr 9.350 15T 8.950 11 7.200 21 8.900 17T 34.400 18
2019-12-20 Aspire Classic - 2019 Aspire Gymnastics Academy 3A 5 Middle 9.150 9T 8.875 13 9.250 13T 8.800 11T 36.075 11
2019-12-13 2019 St Nick Aspire Gymnastics Academy 7A 5 SrA 9.125 5 9.025 3 8.800 7T 8.950 4 35.900 5
2019-03-22 Illinois Gymnastics State Championships Aspire Gymnastics Academy 5 4 JR C 9.275 1 9.850 1T 9.600 1T 9.200 13T 37.925 1
2019-03-08 Lucky Invite Aspire Gymnastics Academy A09 4 Jr A 9.325 5 9.700 4 8.975 12 9.225 4 37.225 4
2019-02-23 Kinetic Classic 2019 Aspire Gymnastics Academy 1 4 Middle 8.950 4 9.450 9 8.600 29T 8.950 13T 35.950 14
2019-02-15 Big ClassicBIG CLASSIC Aspire Gymnastics Academy 5A 4 Child C 9.150 2T 9.650 1 9.375 5T 9.225 2 37.400 1
2019-01-25 UGA Invitational Aspire Gymnastics Academy B06 4 Jr A 9.025 2 9.400 4 9.525 3 9.300 1 37.250 2
2019-01-18 2019 Bravo Classic Aspire Gymnastics Academy 3B 4 Jr 9.300 4 9.275 8 9.375 2 9.000 6T 36.950 4
2018-12-14 2018 Aspire Classic Aspire Gymnastics Academy 5A 4 Middle 9.100 10T 9.450 1 9.400 3T 9.100 10 37.050 4
2018-12-07 St. Nick Invite 2018 Aspire Gymnastics Academy 5A 4 JrB 9.350 3 9.550 2T 9.300 2 9.275 3 37.475 1
2018-11-17 Paul Hamm Thanksgiving Class WOMENS Aspire Gymnastics Academy 6 4 Younger 9.400 3T 9.500 4 8.900 12T 9.100 12T 36.900 5
2018-03-08 Level 4 & 5 State Aspire Gymnastics Academy All 4 Yh B 9.000 7T 8.300 18 9.200 11 8.600 20 35.100 14
2018-02-16 Big Classic Aspire Gymnastics Academy 2B 4 Child B 8.200 12 8.700 10 9.200 3T 8.600 12 34.700 10
2018-01-26 2018 UGA Classic Aspire Gymnastics Academy B2 4 Jr B 8.300 6 8.400 11T 8.800 11 8.550 13 34.050 10T
2018-01-19 2018 Bravo Classic Aspire Gymnastics Academy 11B 4 Jr 8.350 12T 7.600 20 8.975 9T 8.475 19 33.400 18
2017-12-15 2017 Aspire Classic Aspire Gymnastics Academy 3 4 Jr B 8.300 15T 7.800 21 7.800 24 8.100 21 32.000 21
2017-12-08 St. Nick Invite Aspire Gymnastics Academy 7A 4 JrA 8.750 15 8.150 18 8.825 13 8.200 19 33.925 18
2017-11-16 Paul Hamm Thanksgiving Classic - Women Aspire Gymnastics Academy 7 4 Younger 8.150 24T 8.350 24 8.550 24 8.525 24 33.575 22
2017-03-30 2017 Illinois Level 3 & 5 State Aspire Gymnastics Academy All 3 Yh C 9.775 1 9.525 4 9.025 12T 9.225 8 37.550 5
2017-02-24 Kinetic Classic Aspire Gymnastics Academy 4,5,6,7 3 All Ages 9.100 53T 8.900 58T 9.000 42T 8.700 81T 35.700 56T
2017-01-27 2017 UGA Invitational Aspire Gymnastics Academy B7 3 Jr B 9.000 7 9.275 5 9.100 8 9.250 7 36.625 7
2017-01-20 2017 Bravo Classic Aspire Gymnastics Academy 10B 3 8yrs 9.400 2 9.300 7 9.150 3 9.050 7T 36.900 3
2016-12-16 2016 Aspire Classic Aspire Gymnastics Academy 11 3 Middle 9.425 4T 9.600 3 9.000 3 9.175 6 37.200 2
2016-12-09 St. Nick Invite Aspire Gymnastics Academy 5 3 All 9.525 11T 9.350 13 9.350 19 9.125 31 37.350 18
2016-11-19 Paul Hamm Thanksgiving Classic - 2016 Girls Aspire Gymnastics Academy 6 3 8-9 yrs 9.200 13T 9.300 8 8.600 16T 9.100 18T 36.200 8
2016-03-04 2016 Illinois Level 3 State Championships Aspire Gymnastics Academy 3 Child-C 9.400 6 8.200 24 7.400 29 8.350 27 33.350 29
2016-01-30 2016 Flip'R Invitational Aspire Gymnastics Academy 1 3 6 to 7 9.200 6 8.050 13 9.200 1 8.050 14 34.500 10
2016-01-15 2016 Bravo Classic Aspire Gymnastics Academy 15A 3 6-7yrs 8.650 25 8.300 22 7.950 22 7.550 26 32.450 25
Get your scores on
a t-shirt, pin, or hoodie

www.lazysuits.com